sensor_id;sensor_type;location;lat;lon;timestamp;P1;durP1;ratioP1;P2;durP2;ratioP2
16193;SDS011;8204;53.582;10.080;2022-12-29T00:01:29;3.73;;;3.43;;
16193;SDS011;8204;53.582;10.080;2022-12-29T00:03:58;5.33;;;4.87;;
16193;SDS011;8204;53.582;10.080;2022-12-29T00:06:28;5.10;;;3.90;;
16193;SDS011;8204;53.582;10.080;2022-12-29T00:08:57;4.87;;;4.40;;
16193;SDS011;8204;53.582;10.080;2022-12-29T00:11:29;4.30;;;4.10;;
16193;SDS011;8204;53.582;10.080;2022-12-29T00:13:58;5.07;;;4.67;;
16193;SDS011;8204;53.582;10.080;2022-12-29T00:16:40;4.50;;;4.20;;
16193;SDS011;8204;53.582;10.080;2022-12-29T00:19:10;4.60;;;4.30;;
16193;SDS011;8204;53.582;10.080;2022-12-29T00:21:52;5.00;;;4.30;;
16193;SDS011;8204;53.582;10.080;2022-12-29T00:24:33;4.90;;;4.20;;
16193;SDS011;8204;53.582;10.080;2022-12-29T00:27:17;3.90;;;3.60;;
16193;SDS011;8204;53.582;10.080;2022-12-29T00:29:58;5.30;;;3.90;;
16193;SDS011;8204;53.582;10.080;2022-12-29T00:32:39;4.73;;;4.13;;
16193;SDS011;8204;53.582;10.080;2022-12-29T00:35:23;4.60;;;4.20;;
16193;SDS011;8204;53.582;10.080;2022-12-29T00:37:56;4.60;;;4.30;;
16193;SDS011;8204;53.582;10.080;2022-12-29T00:40:42;4.27;;;3.40;;
16193;SDS011;8204;53.582;10.080;2022-12-29T00:43:27;5.73;;;4.60;;
16193;SDS011;8204;53.582;10.080;2022-12-29T00:46:08;4.90;;;4.13;;
16193;SDS011;8204;53.582;10.080;2022-12-29T00:48:37;4.80;;;4.20;;
16193;SDS011;8204;53.582;10.080;2022-12-29T00:51:18;4.70;;;4.30;;
16193;SDS011;8204;53.582;10.080;2022-12-29T00:53:48;3.73;;;3.30;;
16193;SDS011;8204;53.582;10.080;2022-12-29T00:56:16;3.40;;;3.10;;
16193;SDS011;8204;53.582;10.080;2022-12-29T00:58:48;3.90;;;3.60;;
16193;SDS011;8204;53.582;10.080;2022-12-29T01:01:17;4.00;;;3.70;;
16193;SDS011;8204;53.582;10.080;2022-12-29T01:03:45;4.50;;;4.10;;
16193;SDS011;8204;53.582;10.080;2022-12-29T01:06:14;4.47;;;4.07;;
16193;SDS011;8204;53.582;10.080;2022-12-29T01:08:44;3.80;;;3.50;;
16193;SDS011;8204;53.582;10.080;2022-12-29T01:11:32;6.33;;;3.87;;
16193;SDS011;8204;53.582;10.080;2022-12-29T01:14:02;3.93;;;3.63;;
16193;SDS011;8204;53.582;10.080;2022-12-29T01:16:32;4.33;;;3.97;;
16193;SDS011;8204;53.582;10.080;2022-12-29T01:19:02;3.63;;;3.43;;
16193;SDS011;8204;53.582;10.080;2022-12-29T01:21:31;4.13;;;3.47;;
16193;SDS011;8204;53.582;10.080;2022-12-29T01:24:01;4.03;;;3.80;;
16193;SDS011;8204;53.582;10.080;2022-12-29T01:26:29;5.20;;;4.13;;
16193;SDS011;8204;53.582;10.080;2022-12-29T01:29:02;4.03;;;3.73;;
16193;SDS011;8204;53.582;10.080;2022-12-29T01:31:35;3.83;;;3.53;;
16193;SDS011;8204;53.582;10.080;2022-12-29T01:34:04;3.77;;;3.47;;
16193;SDS011;8204;53.582;10.080;2022-12-29T01:36:34;3.17;;;2.97;;
16193;SDS011;8204;53.582;10.080;2022-12-29T01:39:03;3.83;;;3.53;;
16193;SDS011;8204;53.582;10.080;2022-12-29T01:41:32;3.97;;;3.70;;
16193;SDS011;8204;53.582;10.080;2022-12-29T01:47:02;4.00;;;3.60;;
16193;SDS011;8204;53.582;10.080;2022-12-29T01:49:30;4.03;;;3.73;;
16193;SDS011;8204;53.582;10.080;2022-12-29T01:52:00;4.73;;;4.33;;
16193;SDS011;8204;53.582;10.080;2022-12-29T01:54:35;4.33;;;3.93;;
16193;SDS011;8204;53.582;10.080;2022-12-29T01:57:07;4.27;;;3.97;;
16193;SDS011;8204;53.582;10.080;2022-12-29T01:59:43;4.90;;;4.50;;
16193;SDS011;8204;53.582;10.080;2022-12-29T02:02:19;4.40;;;4.00;;
16193;SDS011;8204;53.582;10.080;2022-12-29T02:04:49;6.03;;;4.73;;
16193;SDS011;8204;53.582;10.080;2022-12-29T02:07:21;6.03;;;4.57;;
16193;SDS011;8204;53.582;10.080;2022-12-29T02:09:53;4.43;;;4.13;;
16193;SDS011;8204;53.582;10.080;2022-12-29T02:12:23;4.83;;;4.47;;
16193;SDS011;8204;53.582;10.080;2022-12-29T02:14:53;4.53;;;4.23;;
16193;SDS011;8204;53.582;10.080;2022-12-29T02:17:32;5.10;;;4.70;;
16193;SDS011;8204;53.582;10.080;2022-12-29T02:23:37;5.20;;;4.80;;
16193;SDS011;8204;53.582;10.080;2022-12-29T02:26:34;4.77;;;4.37;;
16193;SDS011;8204;53.582;10.080;2022-12-29T02:29:21;5.40;;;4.90;;
16193;SDS011;8204;53.582;10.080;2022-12-29T02:32:09;4.27;;;3.97;;
16193;SDS011;8204;53.582;10.080;2022-12-29T02:34:47;4.50;;;4.20;;
16193;SDS011;8204;53.582;10.080;2022-12-29T02:37:24;5.43;;;4.90;;
16193;SDS011;8204;53.582;10.080;2022-12-29T02:39:59;4.40;;;4.10;;
16193;SDS011;8204;53.582;10.080;2022-12-29T02:42:35;4.07;;;3.77;;
16193;SDS011;8204;53.582;10.080;2022-12-29T02:45:11;3.90;;;3.60;;
16193;SDS011;8204;53.582;10.080;2022-12-29T02:47:54;3.70;;;3.40;;
16193;SDS011;8204;53.582;10.080;2022-12-29T02:50:31;4.17;;;3.87;;
16193;SDS011;8204;53.582;10.080;2022-12-29T02:53:04;4.73;;;3.70;;
16193;SDS011;8204;53.582;10.080;2022-12-29T02:55:35;4.70;;;4.30;;
16193;SDS011;8204;53.582;10.080;2022-12-29T02:58:13;4.03;;;3.73;;
16193;SDS011;8204;53.582;10.080;2022-12-29T03:00:51;4.23;;;3.93;;
16193;SDS011;8204;53.582;10.080;2022-12-29T03:03:38;4.40;;;4.00;;
16193;SDS011;8204;53.582;10.080;2022-12-29T03:06:21;4.27;;;3.83;;
16193;SDS011;8204;53.582;10.080;2022-12-29T03:09:00;4.30;;;3.97;;
16193;SDS011;8204;53.582;10.080;2022-12-29T03:11:37;4.20;;;3.80;;
16193;SDS011;8204;53.582;10.080;2022-12-29T03:14:27;3.57;;;3.30;;
16193;SDS011;8204;53.582;10.080;2022-12-29T03:17:14;4.10;;;3.70;;
16193;SDS011;8204;53.582;10.080;2022-12-29T03:19:54;3.63;;;3.43;;
16193;SDS011;8204;53.582;10.080;2022-12-29T03:22:34;5.73;;;3.53;;
16193;SDS011;8204;53.582;10.080;2022-12-29T03:25:09;3.47;;;3.27;;
16193;SDS011;8204;53.582;10.080;2022-12-29T03:27:44;4.07;;;3.77;;
16193;SDS011;8204;53.582;10.080;2022-12-29T03:30:15;4.13;;;3.33;;
16193;SDS011;8204;53.582;10.080;2022-12-29T03:32:45;3.40;;;3.10;;
16193;SDS011;8204;53.582;10.080;2022-12-29T03:35:20;3.93;;;3.60;;
16193;SDS011;8204;53.582;10.080;2022-12-29T03:37:53;3.37;;;3.17;;
16193;SDS011;8204;53.582;10.080;2022-12-29T03:40:28;5.30;;;4.00;;
16193;SDS011;8204;53.582;10.080;2022-12-29T03:42:59;3.03;;;2.93;;
16193;SDS011;8204;53.582;10.080;2022-12-29T03:45:30;3.53;;;3.23;;
16193;SDS011;8204;53.582;10.080;2022-12-29T03:47:59;3.20;;;3.00;;
16193;SDS011;8204;53.582;10.080;2022-12-29T03:50:30;3.33;;;3.13;;
16193;SDS011;8204;53.582;10.080;2022-12-29T03:52:59;3.20;;;3.00;;
16193;SDS011;8204;53.582;10.080;2022-12-29T03:55:28;3.33;;;3.07;;
16193;SDS011;8204;53.582;10.080;2022-12-29T03:57:57;5.67;;;2.70;;
16193;SDS011;8204;53.582;10.080;2022-12-29T04:00:26;3.10;;;2.80;;
16193;SDS011;8204;53.582;10.080;2022-12-29T04:02:56;3.23;;;3.03;;
16193;SDS011;8204;53.582;10.080;2022-12-29T04:05:25;3.50;;;2.63;;
16193;SDS011;8204;53.582;10.080;2022-12-29T04:07:56;3.47;;;3.13;;
16193;SDS011;8204;53.582;10.080;2022-12-29T04:10:26;3.87;;;2.43;;
16193;SDS011;8204;53.582;10.080;2022-12-29T04:12:55;3.23;;;3.03;;
16193;SDS011;8204;53.582;10.080;2022-12-29T04:15:24;2.77;;;2.67;;
16193;SDS011;8204;53.582;10.080;2022-12-29T04:17:53;2.57;;;2.40;;
16193;SDS011;8204;53.582;10.080;2022-12-29T04:20:21;2.67;;;2.47;;
16193;SDS011;8204;53.582;10.080;2022-12-29T04:23:05;4.80;;;3.00;;
16193;SDS011;8204;53.582;10.080;2022-12-29T04:25:34;3.70;;;2.97;;
16193;SDS011;8204;53.582;10.080;2022-12-29T04:28:04;2.43;;;2.23;;
16193;SDS011;8204;53.582;10.080;2022-12-29T04:30:34;2.70;;;2.50;;
16193;SDS011;8204;53.582;10.080;2022-12-29T04:33:04;2.70;;;2.50;;
16193;SDS011;8204;53.582;10.080;2022-12-29T04:35:32;2.57;;;2.37;;
16193;SDS011;8204;53.582;10.080;2022-12-29T04:38:01;2.50;;;2.10;;
16193;SDS011;8204;53.582;10.080;2022-12-29T04:40:33;2.43;;;2.27;;
16193;SDS011;8204;53.582;10.080;2022-12-29T04:43:02;2.07;;;1.97;;
16193;SDS011;8204;53.582;10.080;2022-12-29T04:45:30;1.90;;;1.80;;
16193;SDS011;8204;53.582;10.080;2022-12-29T04:47:59;2.27;;;2.07;;
16193;SDS011;8204;53.582;10.080;2022-12-29T04:50:28;1.90;;;1.80;;
16193;SDS011;8204;53.582;10.080;2022-12-29T04:52:57;3.13;;;2.83;;
16193;SDS011;8204;53.582;10.080;2022-12-29T04:55:27;1.90;;;1.80;;
16193;SDS011;8204;53.582;10.080;2022-12-29T04:57:59;2.00;;;1.90;;
16193;SDS011;8204;53.582;10.080;2022-12-29T05:00:28;2.67;;;2.47;;
16193;SDS011;8204;53.582;10.080;2022-12-29T05:02:57;2.27;;;2.07;;
16193;SDS011;8204;53.582;10.080;2022-12-29T05:05:26;2.33;;;2.13;;
16193;SDS011;8204;53.582;10.080;2022-12-29T05:07:56;2.67;;;2.27;;
16193;SDS011;8204;53.582;10.080;2022-12-29T05:10:24;2.30;;;2.13;;
16193;SDS011;8204;53.582;10.080;2022-12-29T05:12:54;2.30;;;1.93;;
16193;SDS011;8204;53.582;10.080;2022-12-29T05:15:25;2.40;;;2.20;;
16193;SDS011;8204;53.582;10.080;2022-12-29T05:17:54;4.03;;;3.03;;
16193;SDS011;8204;53.582;10.080;2022-12-29T05:20:24;3.03;;;2.80;;
16193;SDS011;8204;53.582;10.080;2022-12-29T05:22:54;4.13;;;2.53;;
16193;SDS011;8204;53.582;10.080;2022-12-29T05:25:23;5.00;;;2.33;;
16193;SDS011;8204;53.582;10.080;2022-12-29T05:27:52;1.90;;;1.80;;
16193;SDS011;8204;53.582;10.080;2022-12-29T05:30:20;2.83;;;2.20;;
16193;SDS011;8204;53.582;10.080;2022-12-29T05:32:52;2.47;;;2.17;;
16193;SDS011;8204;53.582;10.080;2022-12-29T05:35:20;4.23;;;2.17;;
16193;SDS011;8204;53.582;10.080;2022-12-29T05:37:49;2.00;;;1.90;;
16193;SDS011;8204;53.582;10.080;2022-12-29T05:40:18;3.17;;;2.20;;
16193;SDS011;8204;53.582;10.080;2022-12-29T05:42:48;2.00;;;1.60;;
16193;SDS011;8204;53.582;10.080;2022-12-29T05:45:17;2.03;;;1.93;;
16193;SDS011;8204;53.582;10.080;2022-12-29T05:47:46;4.70;;;2.00;;
16193;SDS011;8204;53.582;10.080;2022-12-29T05:50:17;2.77;;;2.47;;
16193;SDS011;8204;53.582;10.080;2022-12-29T05:52:46;2.03;;;1.93;;
16193;SDS011;8204;53.582;10.080;2022-12-29T05:55:14;2.40;;;2.30;;
16193;SDS011;8204;53.582;10.080;2022-12-29T05:57:44;2.20;;;2.10;;
16193;SDS011;8204;53.582;10.080;2022-12-29T06:00:14;2.63;;;2.43;;
16193;SDS011;8204;53.582;10.080;2022-12-29T06:02:44;1.83;;;1.73;;
16193;SDS011;8204;53.582;10.080;2022-12-29T06:05:16;2.30;;;2.20;;
16193;SDS011;8204;53.582;10.080;2022-12-29T06:07:45;1.87;;;1.70;;
16193;SDS011;8204;53.582;10.080;2022-12-29T06:10:14;1.90;;;1.80;;
16193;SDS011;8204;53.582;10.080;2022-12-29T06:12:43;2.33;;;2.20;;
16193;SDS011;8204;53.582;10.080;2022-12-29T06:15:12;2.30;;;2.10;;
16193;SDS011;8204;53.582;10.080;2022-12-29T06:17:41;2.83;;;2.63;;
16193;SDS011;8204;53.582;10.080;2022-12-29T06:20:10;2.07;;;1.93;;
16193;SDS011;8204;53.582;10.080;2022-12-29T06:22:41;1.93;;;1.83;;
16193;SDS011;8204;53.582;10.080;2022-12-29T06:25:11;2.30;;;2.17;;
16193;SDS011;8204;53.582;10.080;2022-12-29T06:27:39;2.17;;;2.07;;
16193;SDS011;8204;53.582;10.080;2022-12-29T06:30:09;2.53;;;2.33;;
16193;SDS011;8204;53.582;10.080;2022-12-29T06:32:40;2.10;;;1.97;;
16193;SDS011;8204;53.582;10.080;2022-12-29T06:35:09;2.33;;;2.23;;
16193;SDS011;8204;53.582;10.080;2022-12-29T06:37:38;2.30;;;2.10;;
16193;SDS011;8204;53.582;10.080;2022-12-29T06:40:10;3.33;;;2.20;;
16193;SDS011;8204;53.582;10.080;2022-12-29T06:42:40;2.40;;;2.30;;
16193;SDS011;8204;53.582;10.080;2022-12-29T06:45:09;3.67;;;2.00;;
16193;SDS011;8204;53.582;10.080;2022-12-29T06:47:38;2.50;;;2.30;;
16193;SDS011;8204;53.582;10.080;2022-12-29T06:50:08;2.53;;;2.23;;
16193;SDS011;8204;53.582;10.080;2022-12-29T06:52:37;3.30;;;2.20;;
16193;SDS011;8204;53.582;10.080;2022-12-29T06:55:07;2.23;;;2.13;;
16193;SDS011;8204;53.582;10.080;2022-12-29T06:57:38;1.70;;;1.60;;
16193;SDS011;8204;53.582;10.080;2022-12-29T07:00:09;1.93;;;1.83;;
16193;SDS011;8204;53.582;10.080;2022-12-29T07:02:38;1.77;;;1.60;;
16193;SDS011;8204;53.582;10.080;2022-12-29T07:05:07;2.13;;;1.93;;
16193;SDS011;8204;53.582;10.080;2022-12-29T07:07:37;2.03;;;1.93;;
16193;SDS011;8204;53.582;10.080;2022-12-29T07:10:06;4.50;;;1.53;;
16193;SDS011;8204;53.582;10.080;2022-12-29T07:12:40;2.17;;;1.97;;
16193;SDS011;8204;53.582;10.080;2022-12-29T07:15:09;2.40;;;2.20;;
16193;SDS011;8204;53.582;10.080;2022-12-29T07:17:38;2.00;;;1.80;;
16193;SDS011;8204;53.582;10.080;2022-12-29T07:20:08;6.33;;;2.80;;
16193;SDS011;8204;53.582;10.080;2022-12-29T07:22:38;2.00;;;1.90;;
16193;SDS011;8204;53.582;10.080;2022-12-29T07:25:10;4.63;;;2.20;;
16193;SDS011;8204;53.582;10.080;2022-12-29T07:27:38;1.83;;;1.67;;
16193;SDS011;8204;53.582;10.080;2022-12-29T07:30:08;1.57;;;1.47;;
16193;SDS011;8204;53.582;10.080;2022-12-29T07:32:40;2.33;;;1.40;;
16193;SDS011;8204;53.582;10.080;2022-12-29T07:35:09;1.93;;;1.83;;
16193;SDS011;8204;53.582;10.080;2022-12-29T07:37:38;2.83;;;1.93;;
16193;SDS011;8204;53.582;10.080;2022-12-29T07:40:11;3.80;;;2.50;;
16193;SDS011;8204;53.582;10.080;2022-12-29T07:42:40;3.17;;;2.20;;
16193;SDS011;8204;53.582;10.080;2022-12-29T07:45:09;2.30;;;2.03;;
16193;SDS011;8204;53.582;10.080;2022-12-29T07:47:38;2.03;;;1.93;;
16193;SDS011;8204;53.582;10.080;2022-12-29T07:50:07;3.43;;;2.13;;
16193;SDS011;8204;53.582;10.080;2022-12-29T07:52:37;2.73;;;2.20;;
16193;SDS011;8204;53.582;10.080;2022-12-29T07:55:07;4.60;;;2.80;;
16193;SDS011;8204;53.582;10.080;2022-12-29T07:57:39;2.60;;;2.40;;
16193;SDS011;8204;53.582;10.080;2022-12-29T08:00:09;3.33;;;2.03;;
16193;SDS011;8204;53.582;10.080;2022-12-29T08:02:38;2.03;;;1.83;;
16193;SDS011;8204;53.582;10.080;2022-12-29T08:05:08;1.73;;;1.63;;
16193;SDS011;8204;53.582;10.080;2022-12-29T08:07:38;1.57;;;1.47;;
16193;SDS011;8204;53.582;10.080;2022-12-29T08:10:08;4.63;;;1.60;;
16193;SDS011;8204;53.582;10.080;2022-12-29T08:12:40;1.27;;;1.17;;
16193;SDS011;8204;53.582;10.080;2022-12-29T08:15:10;1.30;;;1.20;;
16193;SDS011;8204;53.582;10.080;2022-12-29T08:17:40;2.03;;;1.60;;
16193;SDS011;8204;53.582;10.080;2022-12-29T08:20:09;2.53;;;2.07;;
16193;SDS011;8204;53.582;10.080;2022-12-29T08:22:39;2.73;;;2.30;;
16193;SDS011;8204;53.582;10.080;2022-12-29T08:25:08;2.70;;;2.50;;
16193;SDS011;8204;53.582;10.080;2022-12-29T08:27:41;2.53;;;2.30;;
16193;SDS011;8204;53.582;10.080;2022-12-29T08:30:10;2.40;;;2.30;;
16193;SDS011;8204;53.582;10.080;2022-12-29T08:32:40;5.30;;;2.57;;
16193;SDS011;8204;53.582;10.080;2022-12-29T08:35:09;2.67;;;2.13;;
16193;SDS011;8204;53.582;10.080;2022-12-29T08:37:38;2.30;;;1.90;;
16193;SDS011;8204;53.582;10.080;2022-12-29T08:40:07;2.70;;;2.40;;
16193;SDS011;8204;53.582;10.080;2022-12-29T08:42:37;3.43;;;2.37;;
16193;SDS011;8204;53.582;10.080;2022-12-29T08:45:09;5.00;;;2.73;;
16193;SDS011;8204;53.582;10.080;2022-12-29T08:47:39;2.00;;;1.90;;
16193;SDS011;8204;53.582;10.080;2022-12-29T08:50:08;3.20;;;2.10;;
16193;SDS011;8204;53.582;10.080;2022-12-29T08:52:37;1.97;;;1.70;;
16193;SDS011;8204;53.582;10.080;2022-12-29T08:55:07;4.23;;;2.00;;
16193;SDS011;8204;53.582;10.080;2022-12-29T08:57:36;4.17;;;1.60;;
16193;SDS011;8204;53.582;10.080;2022-12-29T09:00:10;1.87;;;1.77;;
16193;SDS011;8204;53.582;10.080;2022-12-29T09:02:40;1.40;;;1.30;;
16193;SDS011;8204;53.582;10.080;2022-12-29T09:05:09;2.00;;;1.80;;
16193;SDS011;8204;53.582;10.080;2022-12-29T09:07:38;2.97;;;1.83;;
16193;SDS011;8204;53.582;10.080;2022-12-29T09:10:09;1.73;;;1.57;;
16193;SDS011;8204;53.582;10.080;2022-12-29T09:12:37;2.00;;;1.80;;
16193;SDS011;8204;53.582;10.080;2022-12-29T09:15:09;4.07;;;2.10;;
16193;SDS011;8204;53.582;10.080;2022-12-29T09:17:39;2.03;;;1.57;;
16193;SDS011;8204;53.582;10.080;2022-12-29T09:20:11;2.77;;;1.27;;
16193;SDS011;8204;53.582;10.080;2022-12-29T09:22:42;2.17;;;1.50;;
16193;SDS011;8204;53.582;10.080;2022-12-29T09:25:12;2.07;;;1.40;;
16193;SDS011;8204;53.582;10.080;2022-12-29T09:27:41;2.37;;;1.40;;
16193;SDS011;8204;53.582;10.080;2022-12-29T09:30:13;6.10;;;2.57;;
16193;SDS011;8204;53.582;10.080;2022-12-29T09:32:42;1.60;;;1.07;;
16193;SDS011;8204;53.582;10.080;2022-12-29T09:35:12;1.83;;;1.63;;
16193;SDS011;8204;53.582;10.080;2022-12-29T09:37:42;1.13;;;1.10;;
16193;SDS011;8204;53.582;10.080;2022-12-29T09:40:17;5.40;;;1.97;;
16193;SDS011;8204;53.582;10.080;2022-12-29T09:43:02;3.03;;;1.77;;
16193;SDS011;8204;53.582;10.080;2022-12-29T09:45:43;3.37;;;1.90;;
16193;SDS011;8204;53.582;10.080;2022-12-29T09:48:17;2.93;;;1.30;;
16193;SDS011;8204;53.582;10.080;2022-12-29T09:50:50;4.13;;;2.17;;
16193;SDS011;8204;53.582;10.080;2022-12-29T09:53:25;1.67;;;1.57;;
16193;SDS011;8204;53.582;10.080;2022-12-29T09:55:59;5.07;;;2.37;;
16193;SDS011;8204;53.582;10.080;2022-12-29T09:58:30;5.03;;;1.97;;
16193;SDS011;8204;53.582;10.080;2022-12-29T10:01:06;1.30;;;1.20;;
16193;SDS011;8204;53.582;10.080;2022-12-29T10:03:40;4.27;;;2.33;;
16193;SDS011;8204;53.582;10.080;2022-12-29T10:06:17;6.53;;;1.60;;
16193;SDS011;8204;53.582;10.080;2022-12-29T10:08:52;4.27;;;2.33;;
16193;SDS011;8204;53.582;10.080;2022-12-29T10:11:33;3.90;;;1.93;;
16193;SDS011;8204;53.582;10.080;2022-12-29T10:14:17;2.77;;;2.17;;
16193;SDS011;8204;53.582;10.080;2022-12-29T10:17:05;8.13;;;2.17;;
16193;SDS011;8204;53.582;10.080;2022-12-29T10:19:45;4.80;;;2.30;;
16193;SDS011;8204;53.582;10.080;2022-12-29T10:22:27;5.60;;;2.10;;
16193;SDS011;8204;53.582;10.080;2022-12-29T10:25:08;5.03;;;2.20;;
16193;SDS011;8204;53.582;10.080;2022-12-29T10:27:43;5.70;;;1.80;;
16193;SDS011;8204;53.582;10.080;2022-12-29T10:30:16;4.47;;;1.50;;
16193;SDS011;8204;53.582;10.080;2022-12-29T10:32:49;6.47;;;2.13;;
16193;SDS011;8204;53.582;10.080;2022-12-29T10:35:21;3.20;;;2.07;;
16193;SDS011;8204;53.582;10.080;2022-12-29T10:37:52;4.90;;;2.17;;
16193;SDS011;8204;53.582;10.080;2022-12-29T10:40:27;4.53;;;2.10;;
16193;SDS011;8204;53.582;10.080;2022-12-29T10:43:01;10.23;;;2.30;;
16193;SDS011;8204;53.582;10.080;2022-12-29T10:45:41;6.27;;;2.73;;
16193;SDS011;8204;53.582;10.080;2022-12-29T10:48:14;4.93;;;1.80;;
16193;SDS011;8204;53.582;10.080;2022-12-29T10:50:48;3.93;;;2.93;;
16193;SDS011;8204;53.582;10.080;2022-12-29T10:53:20;6.83;;;3.20;;
16193;SDS011;8204;53.582;10.080;2022-12-29T10:55:52;8.57;;;3.63;;
16193;SDS011;8204;53.582;10.080;2022-12-29T10:58:22;7.97;;;2.67;;
16193;SDS011;8204;53.582;10.080;2022-12-29T11:00:51;5.70;;;2.83;;
16193;SDS011;8204;53.582;10.080;2022-12-29T11:03:33;10.13;;;2.73;;
16193;SDS011;8204;53.582;10.080;2022-12-29T11:06:17;6.20;;;2.40;;
16193;SDS011;8204;53.582;10.080;2022-12-29T11:08:53;6.40;;;2.40;;
16193;SDS011;8204;53.582;10.080;2022-12-29T11:11:25;5.73;;;3.50;;
16193;SDS011;8204;53.582;10.080;2022-12-29T11:13:57;7.63;;;3.23;;
16193;SDS011;8204;53.582;10.080;2022-12-29T11:16:28;3.00;;;2.70;;
16193;SDS011;8204;53.582;10.080;2022-12-29T11:19:04;6.87;;;3.30;;
16193;SDS011;8204;53.582;10.080;2022-12-29T11:21:34;10.63;;;3.20;;
16193;SDS011;8204;53.582;10.080;2022-12-29T11:24:18;3.27;;;2.00;;
16193;SDS011;8204;53.582;10.080;2022-12-29T11:26:49;3.93;;;2.30;;
16193;SDS011;8204;53.582;10.080;2022-12-29T11:29:24;5.33;;;2.57;;
16193;SDS011;8204;53.582;10.080;2022-12-29T11:31:55;3.43;;;1.70;;
16193;SDS011;8204;53.582;10.080;2022-12-29T11:34:30;7.73;;;3.40;;
16193;SDS011;8204;53.582;10.080;2022-12-29T11:37:02;2.33;;;1.43;;
16193;SDS011;8204;53.582;10.080;2022-12-29T11:39:34;3.60;;;1.37;;
16193;SDS011;8204;53.582;10.080;2022-12-29T11:42:12;3.17;;;1.93;;
16193;SDS011;8204;53.582;10.080;2022-12-29T11:44:44;2.27;;;1.93;;
16193;SDS011;8204;53.582;10.080;2022-12-29T11:47:26;6.30;;;2.57;;
16193;SDS011;8204;53.582;10.080;2022-12-29T11:50:03;4.67;;;2.13;;
16193;SDS011;8204;53.582;10.080;2022-12-29T11:52:35;5.37;;;1.60;;
16193;SDS011;8204;53.582;10.080;2022-12-29T11:55:13;5.97;;;2.50;;
16193;SDS011;8204;53.582;10.080;2022-12-29T11:57:47;16.83;;;5.57;;
16193;SDS011;8204;53.582;10.080;2022-12-29T12:00:19;8.90;;;2.30;;
16193;SDS011;8204;53.582;10.080;2022-12-29T12:02:53;4.53;;;1.70;;
16193;SDS011;8204;53.582;10.080;2022-12-29T12:05:38;2.73;;;1.53;;
16193;SDS011;8204;53.582;10.080;2022-12-29T12:08:17;2.63;;;1.43;;
16193;SDS011;8204;53.582;10.080;2022-12-29T12:10:50;4.43;;;1.97;;
16193;SDS011;8204;53.582;10.080;2022-12-29T12:13:25;2.80;;;1.20;;
16193;SDS011;8204;53.582;10.080;2022-12-29T12:15:59;6.00;;;1.93;;
16193;SDS011;8204;53.582;10.080;2022-12-29T12:18:36;1.47;;;1.33;;
16193;SDS011;8204;53.582;10.080;2022-12-29T12:21:13;4.57;;;1.90;;
16193;SDS011;8204;53.582;10.080;2022-12-29T12:23:52;2.57;;;1.73;;
16193;SDS011;8204;53.582;10.080;2022-12-29T12:26:37;4.53;;;2.33;;
16193;SDS011;8204;53.582;10.080;2022-12-29T12:29:13;2.90;;;2.00;;
16193;SDS011;8204;53.582;10.080;2022-12-29T12:31:49;6.27;;;2.03;;
16193;SDS011;8204;53.582;10.080;2022-12-29T12:34:24;5.50;;;2.73;;
16193;SDS011;8204;53.582;10.080;2022-12-29T12:37:04;3.27;;;2.07;;
16193;SDS011;8204;53.582;10.080;2022-12-29T12:39:55;7.03;;;3.70;;
16193;SDS011;8204;53.582;10.080;2022-12-29T12:42:39;7.33;;;4.60;;
16193;SDS011;8204;53.582;10.080;2022-12-29T12:45:28;5.63;;;3.47;;
16193;SDS011;8204;53.582;10.080;2022-12-29T12:48:15;5.20;;;2.97;;
16193;SDS011;8204;53.582;10.080;2022-12-29T12:50:58;5.20;;;2.50;;
16193;SDS011;8204;53.582;10.080;2022-12-29T12:53:54;8.20;;;2.83;;
16193;SDS011;8204;53.582;10.080;2022-12-29T12:56:40;10.33;;;2.83;;
16193;SDS011;8204;53.582;10.080;2022-12-29T12:59:24;5.10;;;1.77;;
16193;SDS011;8204;53.582;10.080;2022-12-29T13:02:13;6.17;;;2.47;;
16193;SDS011;8204;53.582;10.080;2022-12-29T13:04:56;7.10;;;2.33;;
16193;SDS011;8204;53.582;10.080;2022-12-29T13:07:54;5.50;;;2.40;;
16193;SDS011;8204;53.582;10.080;2022-12-29T13:10:39;7.53;;;2.13;;
16193;SDS011;8204;53.582;10.080;2022-12-29T13:13:19;7.13;;;2.70;;
16193;SDS011;8204;53.582;10.080;2022-12-29T13:16:05;3.30;;;1.77;;
16193;SDS011;8204;53.582;10.080;2022-12-29T13:18:44;7.17;;;2.30;;
16193;SDS011;8204;53.582;10.080;2022-12-29T13:21:24;4.77;;;2.40;;
16193;SDS011;8204;53.582;10.080;2022-12-29T13:24:02;3.67;;;2.20;;
16193;SDS011;8204;53.582;10.080;2022-12-29T13:26:42;7.33;;;2.87;;
16193;SDS011;8204;53.582;10.080;2022-12-29T13:29:17;4.00;;;2.57;;
16193;SDS011;8204;53.582;10.080;2022-12-29T13:31:52;4.83;;;2.50;;
16193;SDS011;8204;53.582;10.080;2022-12-29T13:34:32;6.90;;;2.43;;
16193;SDS011;8204;53.582;10.080;2022-12-29T13:37:12;8.30;;;3.00;;
16193;SDS011;8204;53.582;10.080;2022-12-29T13:39:45;3.30;;;2.27;;
16193;SDS011;8204;53.582;10.080;2022-12-29T13:42:20;3.93;;;1.87;;
16193;SDS011;8204;53.582;10.080;2022-12-29T13:44:52;5.93;;;2.17;;
16193;SDS011;8204;53.582;10.080;2022-12-29T13:47:27;5.37;;;2.23;;
16193;SDS011;8204;53.582;10.080;2022-12-29T13:50:02;6.53;;;2.73;;
16193;SDS011;8204;53.582;10.080;2022-12-29T13:52:34;12.53;;;3.23;;
16193;SDS011;8204;53.582;10.080;2022-12-29T13:55:17;3.87;;;1.70;;
16193;SDS011;8204;53.582;10.080;2022-12-29T13:57:58;4.67;;;1.60;;
16193;SDS011;8204;53.582;10.080;2022-12-29T14:00:33;4.57;;;2.30;;
16193;SDS011;8204;53.582;10.080;2022-12-29T14:03:24;3.67;;;1.87;;
16193;SDS011;8204;53.582;10.080;2022-12-29T14:06:15;5.67;;;1.77;;
16193;SDS011;8204;53.582;10.080;2022-12-29T14:08:48;4.83;;;2.23;;
16193;SDS011;8204;53.582;10.080;2022-12-29T14:11:20;3.53;;;1.93;;
16193;SDS011;8204;53.582;10.080;2022-12-29T14:13:53;8.50;;;3.80;;
16193;SDS011;8204;53.582;10.080;2022-12-29T14:16:26;5.77;;;2.50;;
16193;SDS011;8204;53.582;10.080;2022-12-29T14:21:51;8.43;;;2.53;;
16193;SDS011;8204;53.582;10.080;2022-12-29T14:24:39;4.97;;;1.57;;
16193;SDS011;8204;53.582;10.080;2022-12-29T14:33:14;4.33;;;1.87;;
16193;SDS011;8204;53.582;10.080;2022-12-29T14:35:44;4.67;;;2.40;;
16193;SDS011;8204;53.582;10.080;2022-12-29T14:38:17;5.43;;;1.93;;
16193;SDS011;8204;53.582;10.080;2022-12-29T14:44:02;6.97;;;2.77;;
16193;SDS011;8204;53.582;10.080;2022-12-29T14:49:31;7.83;;;2.87;;
16193;SDS011;8204;53.582;10.080;2022-12-29T14:52:05;4.07;;;1.63;;
16193;SDS011;8204;53.582;10.080;2022-12-29T14:54:45;7.07;;;3.07;;
16193;SDS011;8204;53.582;10.080;2022-12-29T15:00:12;6.27;;;2.37;;
16193;SDS011;8204;53.582;10.080;2022-12-29T15:02:45;6.47;;;3.27;;
16193;SDS011;8204;53.582;10.080;2022-12-29T15:05:26;3.53;;;2.60;;
16193;SDS011;8204;53.582;10.080;2022-12-29T15:07:58;4.07;;;2.60;;
16193;SDS011;8204;53.582;10.080;2022-12-29T15:10:32;6.87;;;2.33;;
16193;SDS011;8204;53.582;10.080;2022-12-29T15:13:09;5.60;;;3.00;;
16193;SDS011;8204;53.582;10.080;2022-12-29T15:15:43;7.67;;;3.00;;
16193;SDS011;8204;53.582;10.080;2022-12-29T15:18:21;5.27;;;2.77;;
16193;SDS011;8204;53.582;10.080;2022-12-29T15:20:55;8.57;;;3.43;;
16193;SDS011;8204;53.582;10.080;2022-12-29T15:23:26;7.20;;;3.43;;
16193;SDS011;8204;53.582;10.080;2022-12-29T15:25:57;7.07;;;3.10;;
16193;SDS011;8204;53.582;10.080;2022-12-29T15:28:36;3.37;;;2.40;;
16193;SDS011;8204;53.582;10.080;2022-12-29T15:31:10;10.37;;;3.83;;
16193;SDS011;8204;53.582;10.080;2022-12-29T15:33:41;5.03;;;2.40;;
16193;SDS011;8204;53.582;10.080;2022-12-29T15:36:17;7.20;;;3.23;;
16193;SDS011;8204;53.582;10.080;2022-12-29T15:38:48;3.40;;;2.77;;
16193;SDS011;8204;53.582;10.080;2022-12-29T15:41:22;6.47;;;3.10;;
16193;SDS011;8204;53.582;10.080;2022-12-29T15:44:02;6.47;;;3.97;;
16193;SDS011;8204;53.582;10.080;2022-12-29T15:46:38;4.23;;;3.10;;
16193;SDS011;8204;53.582;10.080;2022-12-29T15:49:08;7.43;;;3.40;;
16193;SDS011;8204;53.582;10.080;2022-12-29T15:51:44;7.30;;;3.23;;